Time;durP1;ratioP1;P1;durP2;ratioP2;P2;SDS_P1;SDS_P2;PMS_P1;PMS_P2;Temp;Humidity;BMP_temperature;BMP_pressure;BME280_temperature;BME280_humidity;BME280_pressure;Samples;Min_cycle;Max_cycle;Signal;HPM_P1;HPM_P2
2020/12/25 00:01:25;;;;;;;2.22;2.10;;;;;;;2.83;100.00;98623.66;4919640;29;20102;-95
2020/12/25 00:03:50;;;;;;;3.00;2.13;;;;;;;2.81;100.00;98638.88;4920005;29;20233;-94
2020/12/25 00:06:16;;;;;;;3.50;3.30;;;;;;;2.84;100.00;98635.38;4919670;29;20031;-95
2020/12/25 00:08:41;;;;;;;1.33;1.33;;;;;;;2.62;100.00;98617.41;4919650;29;20038;-92
2020/12/25 00:11:07;;;;;;;6.53;3.95;;;;;;;2.66;100.00;98597.13;4920082;29;20067;-93
2020/12/25 00:13:32;;;;;;;2.55;2.38;;;;;;;2.84;99.85;98611.59;4919652;29;20067;-95
2020/12/25 00:15:58;;;;;;;2.78;2.20;;;;;;;2.80;99.01;98618.22;4919767;29;20035;-96
2020/12/25 00:18:24;;;;;;;5.07;4.32;;;;;;;2.69;97.97;98640.03;4919531;29;20047;-95
2020/12/25 00:20:50;;;;;;;4.43;3.47;;;;;;;2.55;97.89;98631.00;4919870;29;20023;-96
2020/12/25 00:23:16;;;;;;;4.00;2.22;;;;;;;2.47;97.93;98618.53;4919466;29;20059;-96
2020/12/25 00:25:42;;;;;;;3.50;2.47;;;;;;;2.19;97.82;98586.47;4919383;29;20484;-96
2020/12/25 00:28:07;;;;;;;3.35;3.05;;;;;;;2.19;97.94;98587.25;4919495;29;20035;-93
2020/12/25 00:30:33;;;;;;;0.68;0.68;;;;;;;2.37;98.25;98618.09;4919381;29;20031;-95
2020/12/25 00:32:58;;;;;;;1.35;1.35;;;;;;;2.36;99.45;98618.47;4919247;29;20035;-96
2020/12/25 00:35:24;;;;;;;5.35;1.58;;;;;;;2.42;99.15;98619.66;4919279;29;20054;-96
2020/12/25 00:37:49;;;;;;;2.53;2.22;;;;;;;2.19;99.29;98644.50;4919282;29;20028;-96
2020/12/25 00:40:15;;;;;;;3.15;2.10;;;;;;;2.07;99.21;98623.00;4919251;29;20090;-95
2020/12/25 00:42:40;;;;;;;1.80;1.70;;;;;;;2.09;100.00;98614.47;4936130;29;20036;-96
2020/12/25 00:45:06;;;;;;;5.78;3.33;;;;;;;1.98;100.00;98573.56;4920040;29;20035;-96
2020/12/25 00:47:31;;;;;;;2.92;2.78;;;;;;;1.81;100.00;98563.34;4919006;29;20042;-96
2020/12/25 00:49:57;;;;;;;4.65;2.30;;;;;;;1.89;100.00;98556.75;4919063;29;20038;-95
2020/12/25 00:52:24;;;;;;;2.38;1.52;;;;;;;1.93;100.00;98552.88;4919027;29;20031;-96
2020/12/25 00:54:50;;;;;;;3.70;2.50;;;;;;;1.89;100.00;98559.47;4919027;29;20028;-95
2020/12/25 00:57:16;;;;;;;0.65;0.57;;;;;;;1.82;100.00;98556.72;4918981;29;20031;-95
2020/12/25 00:59:41;;;;;;;1.23;1.23;;;;;;;1.32;100.00;98495.78;4919292;29;20416;-95
2020/12/25 01:02:07;;;;;;;0.80;0.80;;;;;;;1.73;100.00;98542.69;4918714;29;20064;-96
2020/12/25 01:04:32;;;;;;;1.00;0.93;;;;;;;1.50;100.00;98534.78;4935942;29;20036;-96
2020/12/25 01:06:58;;;;;;;0.98;0.98;;;;;;;1.73;100.00;98539.97;4919241;29;20488;-95
2020/12/25 01:09:24;;;;;;;1.23;1.23;;;;;;;1.50;100.00;98513.00;4918703;29;20036;-94
2020/12/25 01:11:50;;;;;;;9.77;2.45;;;;;;;1.52;100.00;98510.66;4919095;29;20040;-96
2020/12/25 01:14:16;;;;;;;5.93;5.53;;;;;;;1.72;100.00;98520.09;4918941;29;20027;-96
2020/12/25 01:16:41;;;;;;;26.35;2.60;;;;;;;2.26;100.00;98570.94;4918701;29;20042;-92
2020/12/25 01:19:07;;;;;;;2.20;2.10;;;;;;;1.84;100.00;98502.66;4919112;29;20028;-94
2020/12/25 01:21:32;;;;;;;2.80;2.42;;;;;;;2.31;100.00;98583.41;4918781;29;20035;-94
2020/12/25 01:23:58;;;;;;;2.80;2.63;;;;;;;2.13;100.00;98586.06;4918854;29;20031;-95
2020/12/25 01:26:23;;;;;;;3.65;3.28;;;;;;;2.14;100.00;98582.19;4918740;29;20495;-93
2020/12/25 01:28:49;;;;;;;1.90;1.77;;;;;;;2.15;100.00;98596.59;4918754;29;20031;-94
2020/12/25 01:31:14;;;;;;;2.47;2.38;;;;;;;2.21;100.00;98578.69;4919039;29;20040;-95
2020/12/25 01:33:40;;;;;;;6.18;3.63;;;;;;;2.24;100.00;98589.59;4918673;29;20036;-96
2020/12/25 01:36:05;;;;;;;2.65;2.53;;;;;;;2.23;100.00;98592.75;4918769;29;20131;-94
2020/12/25 01:38:32;;;;;;;1.65;1.65;;;;;;;2.17;100.00;98577.91;4918623;29;20063;-95
2020/12/25 01:40:57;;;;;;;2.38;2.20;;;;;;;2.26;100.00;98584.56;4918682;29;20031;-95
2020/12/25 01:43:24;;;;;;;3.30;1.55;;;;;;;2.16;100.00;98562.72;4919104;29;20028;-95
2020/12/25 01:45:49;;;;;;;3.42;3.13;;;;;;;2.04;100.00;98542.03;4918480;29;20035;-96
2020/12/25 01:48:15;;;;;;;1.90;1.90;;;;;;;2.30;100.00;98577.16;4918781;29;20083;-96
2020/12/25 01:50:40;;;;;;;2.10;1.95;;;;;;;2.27;100.00;98569.78;4918998;29;20477;-95
2020/12/25 01:53:08;;;;;;;1.77;1.48;;;;;;;2.10;100.00;98545.97;4918757;29;20613;-96
2020/12/25 01:55:34;;;;;;;6.20;2.17;;;;;;;2.43;100.00;98569.41;4918871;29;20031;-96
2020/12/25 01:58:01;;;;;;;1.10;1.10;;;;;;;2.31;100.00;98570.56;4918213;29;20123;-96
2020/12/25 02:00:29;;;;;;;1.70;1.63;;;;;;;1.80;98.73;98520.94;4918979;29;20524;-96
2020/12/25 02:02:54;;;;;;;2.15;2.05;;;;;;;2.11;99.41;98574.75;4918600;29;20038;-96
2020/12/25 02:05:21;;;;;;;2.88;2.65;;;;;;;1.98;99.56;98579.00;4918458;29;20039;-96
2020/12/25 02:07:47;;;;;;;2.03;1.95;;;;;;;1.59;99.24;98555.06;4918499;29;20032;-94
2020/12/25 02:10:13;;;;;;;1.25;1.15;;;;;;;1.80;99.78;98569.97;4919542;29;20059;-96
2020/12/25 02:12:39;;;;;;;3.53;1.38;;;;;;;1.80;100.00;98564.50;4922210;29;20118;-96
2020/12/25 02:15:05;;;;;;;3.55;3.20;;;;;;;1.57;100.00;98535.59;4921757;29;20031;-96
2020/12/25 02:17:31;;;;;;;1.27;1.10;;;;;;;1.70;100.00;98560.56;4921507;29;20032;-96
2020/12/25 02:19:56;;;;;;;1.63;1.45;;;;;;;1.76;100.00;98559.03;4921858;29;20094;-96
2020/12/25 02:22:22;;;;;;;1.10;1.10;;;;;;;1.75;100.00;98562.16;4921985;29;20031;-96
2020/12/25 02:24:48;;;;;;;5.03;3.78;;;;;;;1.74;100.00;98555.13;4921496;29;20039;-95
2020/12/25 02:27:13;;;;;;;4.68;3.80;;;;;;;1.31;100.00;98524.94;4921488;29;20024;-95
2020/12/25 02:29:39;;;;;;;1.67;1.60;;;;;;;1.40;100.00;98557.25;4921466;29;20037;-96
2020/12/25 02:32:04;;;;;;;1.20;1.20;;;;;;;1.41;100.00;98548.72;4921298;29;20038;-96
2020/12/25 02:34:29;;;;;;;0.32;0.32;;;;;;;1.38;100.00;98554.94;4921586;29;20032;-95
2020/12/25 02:36:55;;;;;;;4.20;3.33;;;;;;;1.19;100.00;98517.88;4921054;29;20028;-96
2020/12/25 02:39:20;;;;;;;1.60;1.55;;;;;;;1.36;100.00;98531.97;4921574;29;20106;-96
2020/12/25 02:41:46;;;;;;;1.30;1.30;;;;;;;1.50;100.00;98551.13;4921020;29;20034;-96
2020/12/25 02:44:11;;;;;;;3.90;3.55;;;;;;;1.63;100.00;98544.94;4921148;29;20032;-96
2020/12/25 02:46:37;;;;;;;1.80;1.80;;;;;;;1.68;100.00;98534.88;4921425;29;20031;-95
2020/12/25 02:49:03;;;;;;;5.68;2.45;;;;;;;1.77;100.00;98538.03;4921833;29;20035;-93
2020/12/25 02:51:28;;;;;;;2.08;1.95;;;;;;;1.90;100.00;98561.06;4921236;29;20028;-97
2020/12/25 02:53:54;;;;;;;4.38;3.88;;;;;;;1.81;100.00;98545.03;4921121;29;20047;-95
2020/12/25 02:56:19;;;;;;;2.28;2.17;;;;;;;1.82;100.00;98529.47;4920943;29;20059;-96
2020/12/25 02:58:46;;;;;;;3.45;3.25;;;;;;;1.75;100.00;98524.03;4921143;29;20066;-95
2020/12/25 03:01:13;;;;;;;3.45;3.15;;;;;;;2.00;100.00;98560.31;4920552;29;20444;-96
2020/12/25 03:03:38;;;;;;;4.57;3.22;;;;;;;2.10;100.00;98566.97;4921035;29;20074;-96
2020/12/25 03:06:04;;;;;;;3.55;3.35;;;;;;;2.02;100.00;98539.69;4921165;29;20051;-96
2020/12/25 03:08:31;;;;;;;8.43;5.07;;;;;;;2.07;100.00;98529.59;4920784;29;20059;-94
2020/12/25 03:10:56;;;;;;;3.38;3.10;;;;;;;2.12;100.00;98546.34;4921165;29;20035;-95
2020/12/25 03:13:21;;;;;;;2.65;2.45;;;;;;;1.98;100.00;98536.19;4921207;29;20023;-96
2020/12/25 03:15:47;;;;;;;1.48;1.48;;;;;;;2.04;100.00;98559.19;4920748;29;20564;-96
2020/12/25 03:18:12;;;;;;;2.25;2.15;;;;;;;2.15;100.00;98563.88;4920891;29;20031;-96
2020/12/25 03:20:38;;;;;;;3.70;3.50;;;;;;;2.20;100.00;98550.66;4921392;29;20039;-96
2020/12/25 03:23:03;;;;;;;2.88;2.67;;;;;;;2.25;100.00;98558.47;4920660;29;20090;-96
2020/12/25 03:25:29;;;;;;;2.38;2.25;;;;;;;1.97;99.04;98571.97;4920419;29;20035;-95
2020/12/25 03:27:54;;;;;;;4.38;2.92;;;;;;;1.85;98.81;98554.03;4920393;29;20028;-93
2020/12/25 03:30:20;;;;;;;7.38;6.43;;;;;;;1.57;99.49;98541.03;4920688;29;20037;-93
2020/12/25 03:32:45;;;;;;;3.42;3.22;;;;;;;1.58;100.00;98545.31;4920466;29;20024;-96
2020/12/25 03:35:11;;;;;;;3.42;1.90;;;;;;;1.59;100.00;98549.59;4920456;29;20111;-95
2020/12/25 03:37:36;;;;;;;1.67;1.60;;;;;;;1.68;100.00;98556.66;4920361;29;20031;-96
2020/12/25 03:40:03;;;;;;;1.33;1.33;;;;;;;1.65;100.00;98571.81;4920557;29;20092;-96
2020/12/25 03:42:29;;;;;;;2.63;2.33;;;;;;;1.52;100.00;98543.34;4920306;29;20528;-96
2020/12/25 03:44:55;;;;;;;3.20;2.90;;;;;;;1.64;100.00;98543.00;4921094;29;20083;-96
2020/12/25 03:47:27;;;;;;;1.52;1.52;;;;;;;1.61;100.00;98555.47;4919949;29;20070;-95
2020/12/25 03:49:53;;;;;;;4.80;4.43;;;;;;;1.62;100.00;98559.75;4920156;29;20035;-96
2020/12/25 03:52:20;;;;;;;2.00;1.88;;;;;;;1.59;100.00;98549.59;4920124;29;20035;-96
2020/12/25 03:54:45;;;;;;;2.35;2.25;;;;;;;1.53;100.00;98562.00;4920109;29;20035;-96
2020/12/25 03:57:11;;;;;;;3.55;3.33;;;;;;;1.41;100.00;98548.72;4920282;29;20043;-96
2020/12/25 03:59:36;;;;;;;5.72;2.50;;;;;;;1.50;100.00;98573.69;4919939;29;20036;-96
2020/12/25 04:02:02;;;;;;;2.05;1.95;;;;;;;1.51;100.00;98577.16;4919643;29;20497;-96
2020/12/25 04:04:27;;;;;;;6.43;1.92;;;;;;;1.27;100.00;98537.72;4919913;29;20032;-96
2020/12/25 04:06:53;;;;;;;1.55;1.50;;;;;;;1.40;100.00;98555.31;4919740;29;20091;-96
2020/12/25 04:09:18;;;;;;;2.30;2.15;;;;;;;1.30;100.00;98533.47;4919805;29;20492;-96
2020/12/25 04:11:44;;;;;;;0.73;0.73;;;;;;;1.01;100.00;98518.91;4919546;29;20044;-96
2020/12/25 04:14:09;;;;;;;1.63;1.52;;;;;;;0.65;100.00;98460.72;4919777;29;20035;-96
2020/12/25 04:16:35;;;;;;;2.92;2.70;;;;;;;1.08;100.00;98533.34;4919340;29;20032;-96
2020/12/25 04:19:00;;;;;;;2.45;2.25;;;;;;;0.93;100.00;98506.38;4919561;29;20042;-96
2020/12/25 04:21:26;;;;;;;3.50;3.20;;;;;;;0.38;100.00;98449.22;4919571;29;20035;-95
2020/12/25 04:23:52;;;;;;;2.45;2.25;;;;;;;0.50;100.00;98445.44;4919623;29;20027;-95
2020/12/25 04:26:18;;;;;;;2.03;1.92;;;;;;;0.91;100.00;98516.84;4919403;29;20035;-95
2020/12/25 04:28:44;;;;;;;1.75;1.65;;;;;;;1.03;100.00;98571.75;4919300;29;20130;-96
2020/12/25 04:31:09;;;;;;;2.20;2.10;;;;;;;0.77;100.00;98510.16;4919779;29;20077;-95
2020/12/25 04:33:35;;;;;;;1.40;1.40;;;;;;;1.04;100.00;98551.56;4919071;29;20479;-94
2020/12/25 04:36:00;;;;;;;3.00;2.75;;;;;;;0.15;100.00;98445.91;4919229;29;20476;-96
2020/12/25 04:38:26;;;;;;;7.28;2.65;;;;;;;0.87;100.00;98535.88;4919082;29;20032;-96
2020/12/25 04:40:52;;;;;;;0.95;0.95;;;;;;;0.72;100.00;98520.59;4915908;29;20401;-96
2020/12/25 04:43:18;;;;;;;0.70;0.70;;;;;;;0.59;100.00;98481.25;4919373;29;20046;-96
2020/12/25 04:45:44;;;;;;;1.25;1.25;;;;;;;0.76;100.00;98497.72;4919311;29;20480;-96
2020/12/25 04:48:11;;;;;;;2.22;2.05;;;;;;;0.48;100.00;98440.41;4936166;29;20024;-95
2020/12/25 04:50:37;;;;;;;1.90;1.80;;;;;;;0.75;100.00;98468.19;4919345;29;20031;-94
2020/12/25 04:53:03;;;;;;;1.85;1.75;;;;;;;0.88;100.00;98491.22;4919085;29;20036;-96
2020/12/25 04:55:53;;;;;;;2.28;2.17;;;;;;;1.08;100.00;98533.34;4918752;29;20039;-96
2020/12/25 04:58:18;;;;;;;0.95;0.95;;;;;;;0.73;100.00;98508.56;4919290;29;20032;-94
2020/12/25 05:01:01;;;;;;;0.50;0.50;;;;;;;0.88;100.00;98528.50;4918687;29;20063;-95
2020/12/25 05:03:26;;;;;;;0.35;0.35;;;;;;;1.00;100.00;98556.19;4919735;29;20098;-94
2020/12/25 05:05:52;;;;;;;2.28;1.77;;;;;;;0.91;100.00;98552.22;4919007;29;20035;-94
2020/12/25 05:08:20;;;;;;;0.60;0.60;;;;;;;0.65;100.00;98525.97;4918965;29;20035;-94
2020/12/25 05:10:47;;;;;;;2.25;1.45;;;;;;;0.79;100.00;98540.47;4919059;29;20036;-94
2020/12/25 05:13:17;;;;;;;0.98;0.98;;;;;;;0.75;100.00;98545.09;4919106;29;20503;-94
2020/12/25 05:15:47;;;;;;;3.20;1.88;;;;;;;0.84;100.00;98557.63;4918903;29;20024;-95
2020/12/25 05:18:15;;;;;;;1.45;1.42;;;;;;;0.95;100.00;98544.88;4919541;29;20031;-94
2020/12/25 05:20:41;;;;;;;1.03;1.03;;;;;;;1.02;100.00;98550.38;4918966;29;20074;-95
2020/12/25 05:23:10;;;;;;;1.73;1.73;;;;;;;1.00;100.00;98558.13;4919009;29;20032;-94
2020/12/25 05:25:35;;;;;;;0.50;0.50;;;;;;;1.07;100.00;98555.47;4918607;29;20024;-94
2020/12/25 05:28:11;;;;;;;1.45;1.35;;;;;;;1.03;100.00;98560.09;4918868;29;20028;-93
2020/12/25 05:30:36;;;;;;;1.98;1.58;;;;;;;1.01;100.00;98562.41;4919140;29;20473;-93
2020/12/25 05:33:03;;;;;;;3.25;3.00;;;;;;;0.79;100.00;98526.09;4918694;29;20032;-94
2020/12/25 05:35:29;;;;;;;1.63;1.52;;;;;;;0.79;100.00;98524.16;4918808;29;20036;-93
2020/12/25 05:37:55;;;;;;;2.08;1.98;;;;;;;1.00;100.00;98571.72;4918771;29;20147;-94
2020/12/25 05:40:21;;;;;;;2.35;2.25;;;;;;;0.82;100.00;98544.38;4918752;29;20504;-94
2020/12/25 05:42:48;;;;;;;7.22;5.93;;;;;;;0.68;99.33;98544.25;4920426;29;20143;-96
2020/12/25 05:45:18;;;;;;;1.60;1.60;;;;;;;0.37;98.85;98534.63;4920081;29;20035;-93
2020/12/25 05:47:45;;;;;;;2.20;1.42;;;;;;;0.59;100.00;98584.56;4922329;29;20032;-94
2020/12/25 05:50:11;;;;;;;4.35;3.80;;;;;;;0.64;100.00;98579.56;4922194;29;20055;-94
2020/12/25 05:52:38;;;;;;;5.30;5.00;;;;;;;0.52;100.00;98552.66;4922461;29;20114;-94
2020/12/25 05:55:04;;;;;;;4.43;3.92;;;;;;;0.40;100.00;98544.75;4922130;29;20034;-93
2020/12/25 05:57:33;;;;;;;6.43;2.83;;;;;;;0.55;100.00;98560.03;4921810;29;20059;-93
2020/12/25 06:00:04;;;;;;;5.97;4.82;;;;;;;0.74;100.00;98568.00;4921883;29;20032;-94
2020/12/25 06:02:33;;;;;;;3.88;2.75;;;;;;;0.80;100.00;98585.53;4922103;29;20138;-92
2020/12/25 06:05:00;;;;;;;7.10;4.07;;;;;;;0.94;100.00;98600.44;4921921;29;20075;-94
2020/12/25 06:07:29;;;;;;;5.32;4.72;;;;;;;0.99;100.00;98600.09;4921834;29;20035;-95
2020/12/25 06:09:58;;;;;;;6.40;5.35;;;;;;;0.98;100.00;98593.84;4922212;29;20035;-93
2020/12/25 06:12:37;;;;;;;7.13;6.53;;;;;;;0.87;100.00;98592.97;4921972;29;20083;-94
2020/12/25 06:15:05;;;;;;;2.00;1.90;;;;;;;0.88;100.00;98588.34;4921612;29;20122;-92
2020/12/25 06:17:34;;;;;;;2.47;2.38;;;;;;;0.82;100.00;98583.25;4921694;29;20027;-91
2020/12/25 06:20:02;;;;;;;4.45;4.15;;;;;;;0.86;98.82;98590.63;4922035;29;20103;-92
2020/12/25 06:22:32;;;;;;;2.80;1.95;;;;;;;0.88;98.09;98601.94;4921716;29;20027;-92
2020/12/25 06:25:06;;;;;;;1.60;1.58;;;;;;;0.68;98.85;98568.72;4921397;29;20032;-92
2020/12/25 06:27:32;;;;;;;1.60;1.60;;;;;;;0.89;99.94;98598.06;4921494;29;20035;-92
2020/12/25 06:30:04;;;;;;;2.10;1.95;;;;;;;0.73;100.00;98577.31;4921537;29;20040;-92
2020/12/25 06:32:31;;;;;;;2.70;2.60;;;;;;;1.01;100.00;98624.97;4921690;29;20020;-93
2020/12/25 06:34:59;;;;;;;7.63;6.93;;;;;;;1.08;100.00;98603.28;4921495;29;20038;-89
2020/12/25 06:37:28;;;;;;;7.68;3.92;;;;;;;1.19;100.00;98599.50;4921305;29;20074;-88
2020/12/25 06:40:03;;;;;;;4.95;4.53;;;;;;;1.31;100.00;98590.25;4921042;29;20039;-90
2020/12/25 06:42:33;;;;;;;7.70;7.00;;;;;;;1.15;100.00;98587.00;4922061;29;20030;-90
2020/12/25 06:45:10;;;;;;;4.50;4.22;;;;;;;1.66;100.00;98635.22;4921235;29;20027;-89
2020/12/25 06:47:38;;;;;;;13.75;9.50;;;;;;;1.52;100.00;98597.78;4921194;29;20059;-95
2020/12/25 06:50:15;;;;;;;8.48;5.82;;;;;;;1.66;100.00;98592.44;4921173;29;20032;-96
2020/12/25 06:52:55;;;;;;;11.55;8.63;;;;;;;1.94;99.55;98625.28;4921358;29;20504;-93
2020/12/25 06:55:22;;;;;;;4.03;3.65;;;;;;;1.88;100.00;98620.56;4921346;29;20514;-94
2020/12/25 06:57:50;;;;;;;12.15;7.53;;;;;;;2.13;99.59;98626.16;4921148;29;20027;-94
2020/12/25 07:00:19;;;;;;;5.15;4.80;;;;;;;2.27;98.55;98629.75;4921436;29;20063;-95
2020/12/25 07:02:44;;;;;;;3.13;2.67;;;;;;;2.41;97.87;98618.13;4921098;29;20098;-96
2020/12/25 07:05:10;;;;;;;3.17;3.00;;;;;;;2.45;95.72;98619.69;4920799;29;20035;-96
2020/12/25 07:07:35;;;;;;;3.03;2.83;;;;;;;2.56;94.75;98624.38;4921481;29;20027;-95
2020/12/25 07:10:07;;;;;;;5.25;4.95;;;;;;;2.62;94.65;98623.63;4921192;29;20464;-94
2020/12/25 07:12:32;;;;;;;6.22;5.55;;;;;;;2.72;94.91;98624.81;4937436;29;20519;-90
2020/12/25 07:14:58;;;;;;;3.97;3.78;;;;;;;2.60;96.23;98619.72;4920711;29;20032;-92
2020/12/25 07:17:23;;;;;;;8.18;7.40;;;;;;;2.70;96.24;98644.31;4920319;29;20039;-96
2020/12/25 07:19:49;;;;;;;6.88;4.95;;;;;;;2.73;95.92;98618.19;4902061;29;20035;-96
2020/12/25 07:22:14;;;;;;;7.05;6.47;;;;;;;2.34;97.09;98588.88;4920885;29;20035;-95
2020/12/25 07:24:41;;;;;;;7.70;7.10;;;;;;;2.80;97.49;98635.38;4920839;29;20046;-96
2020/12/25 07:27:08;;;;;;;17.92;10.38;;;;;;;2.99;95.83;98615.13;4920880;29;20066;-96
2020/12/25 07:29:35;;;;;;;21.77;11.43;;;;;;;3.25;94.05;98630.38;4921535;29;20106;-94
2020/12/25 07:32:01;;;;;;;8.32;7.65;;;;;;;3.19;93.38;98635.44;4907609;29;20343;-95
2020/12/25 07:34:26;;;;;;;5.50;2.53;;;;;;;3.36;92.96;98635.84;4914776;29;20031;-93
2020/12/25 07:36:54;;;;;;;7.60;6.88;;;;;;;3.42;93.62;98645.19;4920331;29;20031;-93
2020/12/25 07:39:20;;;;;;;4.15;3.85;;;;;;;3.37;93.93;98637.41;4905492;29;20020;-92
2020/12/25 07:41:46;;;;;;;3.42;2.70;;;;;;;3.57;93.42;98619.44;4907951;29;20102;-94
2020/12/25 07:44:12;;;;;;;3.67;3.38;;;;;;;3.81;92.39;98632.28;4920140;29;20082;-93
2020/12/25 07:46:42;;;;;;;8.10;7.40;;;;;;;3.98;92.62;98652.56;4919989;29;20405;-91
2020/12/25 07:49:07;;;;;;;4.30;3.47;;;;;;;4.15;91.41;98648.25;4919584;29;20038;-95
2020/12/25 07:51:38;;;;;;;5.85;5.32;;;;;;;4.19;91.39;98660.72;4920843;29;20122;-95
2020/12/25 07:54:04;;;;;;;2.90;2.65;;;;;;;4.35;91.37;98646.59;4923219;29;20026;-87
2020/12/25 07:56:34;;;;;;;3.13;2.88;;;;;;;4.44;89.76;98638.75;4919926;29;20059;-87
2020/12/25 07:59:02;;;;;;;2.13;2.03;;;;;;;4.75;90.72;98658.97;4920010;29;20031;-87
2020/12/25 08:01:29;;;;;;;6.70;6.03;;;;;;;4.93;89.55;98665.13;4919256;29;20114;-86
2020/12/25 08:03:59;;;;;;;3.28;3.05;;;;;;;5.15;88.65;98649.34;4919372;29;20055;-86
2020/12/25 08:06:26;;;;;;;1.25;1.25;;;;;;;5.34;87.90;98657.03;4935614;29;20047;-88
2020/12/25 08:09:07;;;;;;;5.30;4.80;;;;;;;5.33;87.44;98622.59;4918754;29;20603;-87
2020/12/25 08:11:35;;;;;;;9.27;4.65;;;;;;;5.48;87.15;98635.03;4919384;29;20023;-86
2020/12/25 08:14:09;;;;;;;2.97;2.78;;;;;;;5.55;86.04;98607.53;4917852;29;20032;-86
2020/12/25 08:16:43;;;;;;;3.05;2.85;;;;;;;5.97;85.13;98644.75;4914737;29;20036;-85
2020/12/25 08:19:08;;;;;;;3.33;3.10;;;;;;;6.20;84.52;98652.38;4919409;29;20032;-86
2020/12/25 08:21:48;;;;;;;7.22;6.53;;;;;;;6.21;83.16;98651.19;4919206;29;20503;-87
2020/12/25 08:24:14;;;;;;;1.92;1.83;;;;;;;5.96;84.62;98635.00;4920267;29;20035;-94
2020/12/25 08:26:40;;;;;;;5.45;2.90;;;;;;;5.93;84.77;98635.03;4919993;29;20028;-96
2020/12/25 08:29:07;;;;;;;2.28;2.15;;;;;;;5.81;85.29;98613.56;4937271;29;20062;-95
2020/12/25 08:31:34;;;;;;;4.07;3.78;;;;;;;5.91;85.80;98645.59;4922398;29;20020;-94
2020/12/25 08:34:00;;;;;;;3.47;3.17;;;;;;;5.83;85.54;98619.44;4919446;29;20134;-94
2020/12/25 08:36:26;;;;;;;5.15;4.85;;;;;;;5.97;86.27;98642.03;4919466;29;20063;-94
2020/12/25 08:38:51;;;;;;;3.50;3.30;;;;;;;6.05;85.52;98632.53;4919328;29;20051;-93
2020/12/25 08:41:17;;;;;;;3.72;3.47;;;;;;;5.71;86.28;98593.31;4920613;29;20038;-93
2020/12/25 08:43:43;;;;;;;8.60;6.22;;;;;;;5.94;85.30;98617.38;4920020;29;20500;-95
2020/12/25 08:46:08;;;;;;;3.17;2.95;;;;;;;5.88;85.59;98589.63;4922039;29;20028;-91
2020/12/25 08:48:48;;;;;;;4.38;3.97;;;;;;;5.93;86.39;98613.88;4919586;29;20032;-93
2020/12/25 08:51:15;;;;;;;5.90;3.03;;;;;;;5.58;88.79;98628.66;4919574;29;20027;-91
2020/12/25 08:53:54;;;;;;;9.05;5.13;;;;;;;5.93;88.98;98611.13;4919601;29;20492;-92
2020/12/25 08:56:21;;;;;;;11.20;9.10;;;;;;;6.47;86.98;98606.59;4919441;29;20138;-90
2020/12/25 08:59:04;;;;;;;12.83;8.73;;;;;;;6.93;83.74;98605.22;4919232;29;20035;-87
2020/12/25 09:01:34;;;;;;;15.00;10.15;;;;;;;7.33;82.28;98598.69;4918853;29;20319;-90
2020/12/25 09:04:00;;;;;;;12.13;9.25;;;;;;;7.24;82.36;98612.19;4925622;29;20032;-90
2020/12/25 09:06:27;;;;;;;19.42;15.82;;;;;;;6.78;84.32;98590.09;4922261;29;20019;-93
2020/12/25 09:08:53;;;;;;;16.83;15.10;;;;;;;7.17;84.58;98595.03;4940420;28;20087;-91
2020/12/25 09:11:22;;;;;;;18.35;14.00;;;;;;;7.83;82.32;98584.09;4925362;29;20448;-88
2020/12/25 09:13:48;;;;;;;29.50;14.55;;;;;;;8.23;79.90;98573.13;4919344;29;20035;-87
2020/12/25 09:16:14;;;;;;;37.50;14.50;;;;;;;8.53;78.62;98584.72;4924750;29;20039;-87
2020/12/25 09:18:59;;;;;;;11.30;10.27;;;;;;;8.22;80.34;98572.34;4920307;29;20034;-86
2020/12/25 09:21:27;;;;;;;16.25;14.13;;;;;;;8.12;81.28;98578.84;4913953;29;20031;-86
2020/12/25 09:23:53;;;;;;;21.50;11.52;;;;;;;8.55;79.99;98576.81;4904117;29;20078;-86
2020/12/25 09:26:18;;;;;;;10.93;8.77;;;;;;;8.03;81.37;98571.13;4904454;29;20040;-86
2020/12/25 09:28:44;;;;;;;20.20;10.32;;;;;;;8.38;80.09;98561.41;4904334;29;20028;-84
2020/12/25 09:31:12;;;;;;;9.65;8.65;;;;;;;8.52;79.46;98547.38;4903510;29;20035;-86
2020/12/25 09:33:38;;;;;;;;;;;;;;;8.85;78.70;98558.47;4926994;29;20051;-86
2020/12/25 09:36:06;;;;;;;10.13;7.93;;;;;;;9.10;77.50;98555.88;4922287;29;19961;-86
2020/12/25 09:38:31;;;;;;;21.58;10.93;;;;;;;8.85;77.34;98553.72;4922156;29;20039;-85
2020/12/25 09:40:57;;;;;;;18.05;13.95;;;;;;;8.20;80.51;98557.47;4922153;29;20035;-85
2020/12/25 09:43:23;;;;;;;18.42;14.43;;;;;;;8.23;80.67;98546.38;4922004;29;20126;-84
2020/12/25 09:45:48;;;;;;;22.70;13.52;;;;;;;8.21;80.95;98539.72;4921741;29;20031;-86
2020/12/25 09:48:14;;;;;;;22.08;10.90;;;;;;;7.40;82.55;98520.06;4922219;29;20056;-89
2020/12/25 09:50:42;;;;;;;16.05;14.23;;;;;;;7.44;84.74;98529.81;4921859;29;20032;-89
2020/12/25 09:53:07;;;;;;;16.70;13.32;;;;;;;7.59;84.38;98535.84;4921607;29;20146;-86
2020/12/25 09:55:37;;;;;;;11.20;9.95;;;;;;;7.66;85.12;98538.44;4921931;29;20035;-89
2020/12/25 09:58:04;;;;;;;11.60;9.25;;;;;;;7.85;82.92;98501.16;4922392;29;20032;-87
2020/12/25 10:00:29;;;;;;;8.68;7.90;;;;;;;8.36;81.29;98532.78;4921464;29;20060;-86
2020/12/25 10:06:10;;;;;;;14.32;7.70;;;;;;;8.13;82.35;98520.66;4939363;29;20104;-84
2020/12/25 10:08:41;;;;;;;4.78;4.25;;;;;;;8.23;82.88;98523.59;4921418;29;20027;-87
2020/12/25 10:11:06;;;;;;;20.45;7.55;;;;;;;8.07;83.22;98511.34;4922076;29;20040;-86
2020/12/25 10:13:32;;;;;;;6.63;6.03;;;;;;;8.28;82.38;98482.56;4921761;29;20038;-85
2020/12/25 10:15:57;;;;;;;9.90;8.88;;;;;;;8.54;81.63;98503.66;4925202;29;20476;-88
2020/12/25 10:18:23;;;;;;;14.32;6.50;;;;;;;8.89;80.06;98509.56;4925956;29;20024;-89
2020/12/25 10:20:48;;;;;;;4.32;4.07;;;;;;;8.90;79.03;98506.38;4925146;29;20078;-87
2020/12/25 10:23:14;;;;;;;11.45;6.85;;;;;;;8.95;79.28;98496.81;4922046;29;20043;-86
2020/12/25 10:25:39;;;;;;;6.80;6.20;;;;;;;8.98;79.31;98504.97;4921986;29;20436;-81
2020/12/25 10:28:05;;;;;;;6.22;5.72;;;;;;;9.20;78.75;98496.97;4925777;29;20031;-86
2020/12/25 10:30:30;;;;;;;8.00;5.53;;;;;;;9.37;78.88;98484.72;4920953;29;20166;-86
2020/12/25 10:32:56;;;;;;;6.60;5.18;;;;;;;9.42;78.30;98486.19;4939243;29;20150;-87
2020/12/25 10:35:21;;;;;;;5.18;3.72;;;;;;;9.67;77.30;98486.28;4926100;29;20040;-88
2020/12/25 10:37:47;;;;;;;8.93;6.05;;;;;;;9.94;75.53;98480.44;4921595;29;20062;-87
2020/12/25 10:40:12;;;;;;;4.90;4.50;;;;;;;10.18;75.08;98467.16;4921691;29;20032;-88
2020/12/25 10:42:37;;;;;;;3.38;3.10;;;;;;;10.10;74.83;98458.28;4919952;29;20032;-87
2020/12/25 10:45:03;;;;;;;12.32;4.68;;;;;;;9.91;75.88;98452.94;4919894;29;20027;-88
2020/12/25 10:47:28;;;;;;;4.93;4.63;;;;;;;9.93;74.78;98445.78;4921235;29;20024;-87
2020/12/25 10:49:54;;;;;;;4.32;3.90;;;;;;;10.12;74.55;98455.09;4922624;29;20024;-88
2020/12/25 10:52:20;;;;;;;3.45;2.92;;;;;;;10.01;74.41;98455.38;4926286;29;20035;-88
2020/12/25 10:54:45;;;;;;;18.70;3.35;;;;;;;10.31;74.81;98464.41;4920119;29;20487;-87
2020/12/25 10:57:11;;;;;;;9.70;4.95;;;;;;;10.58;73.89;98462.00;4922412;29;20028;-88
2020/12/25 10:59:36;;;;;;;5.35;4.30;;;;;;;10.81;72.96;98461.63;4920126;29;20058;-88
2020/12/25 11:02:02;;;;;;;5.72;3.33;;;;;;;10.81;72.15;98450.59;4922091;29;20052;-81
2020/12/25 11:04:27;;;;;;;7.97;6.07;;;;;;;10.97;71.47;98463.53;4921393;29;20043;-82
2020/12/25 11:06:52;;;;;;;12.13;4.78;;;;;;;10.85;72.18;98458.78;4921621;29;20098;-83
2020/12/25 11:09:18;;;;;;;8.98;7.47;;;;;;;10.36;74.36;98459.13;4926410;29;20028;-87
2020/12/25 11:11:43;;;;;;;3.67;3.33;;;;;;;10.57;73.58;98441.88;4928822;29;20034;-87
2020/12/25 11:14:09;;;;;;;4.82;3.42;;;;;;;10.34;71.85;98411.06;4926845;29;20039;-86
2020/12/25 11:16:36;;;;;;;6.20;4.82;;;;;;;10.20;72.15;98429.59;4941319;29;20027;-86
2020/12/25 11:19:06;;;;;;;29.90;11.15;;;;;;;10.10;73.21;98416.09;4920653;29;20122;-86
2020/12/25 11:21:32;;;;;;;10.05;6.78;;;;;;;10.13;73.19;98443.56;4920719;29;20389;-86
2020/12/25 11:24:00;;;;;;;13.20;9.77;;;;;;;10.30;73.48;98441.56;4920262;29;20036;-86
2020/12/25 11:26:33;;;;;;;7.25;6.70;;;;;;;10.17;73.66;98436.00;4914316;29;20127;-86
2020/12/25 11:29:01;;;;;;;6.40;5.78;;;;;;;9.87;73.93;98397.06;4908716;29;20036;-84
2020/12/25 11:31:28;;;;;;;10.07;7.10;;;;;;;9.81;75.00;98410.63;4913573;29;20090;-84
2020/12/25 11:33:55;;;;;;;9.90;6.50;;;;;;;9.99;75.17;98434.97;4903671;29;20039;-86
2020/12/25 11:36:26;;;;;;;7.35;6.70;;;;;;;10.11;74.98;98426.69;4915727;29;20035;-87
2020/12/25 11:38:52;;;;;;;13.70;8.15;;;;;;;9.76;75.98;98416.72;4912774;29;20111;-87